Yoho Park AWS, British Columbia

8:03 AM MDT on April 23, 2017 (GMT -0600)
SkiLouise Operations | | Change Station

Elev 5479 ft 51.44 °N, 116.16 °W | Updated 13 minutes ago

Partly Cloudy
Partly Cloudy
30.5 °F
Feels Like 30 °F
N
0.0
Wind Variable Wind from NE
Gusts 0.0 mph

Today
High -- | Low -- °F
--% Chance of Precip.
Yesterday
High -- | Low -- °F
Precip. -- in
Pressure 29.86 in
Visibility 20.0 miles
Clouds Few 1200 ft
Scattered Clouds 7000 ft
Mostly Cloudy 10000 ft
Mostly Cloudy 21000 ft
Windchill 30 °F
Dew Point 26 °F
Humidity 82%
Rainfall 0.00 in
Snow Depth Not available.
6:32 AM 8:56 PM
Waning Crescent, 12% visible
METAR CYGE 231300Z VRB02KT 20SM FEW012 SCT070 BKN100 BKN210 02/01 A2982 RMK SC1AC4AC1CI1 SC TR SLP112
Pressure 29.86 in
Visibility 20.0 miles
Clouds Few 1200 ft
Scattered Clouds 7000 ft
Mostly Cloudy 10000 ft
Mostly Cloudy 21000 ft
Windchill 30 °F
Dew Point 26 °F
Humidity 82%
Rainfall 0.00 in
Snow Depth Not available.
6:32 AM 8:56 PM
Waning Crescent, 12% visible
METAR CYGE 231300Z VRB02KT 20SM FEW012 SCT070 BKN100 BKN210 02/01 A2982 RMK SC1AC4AC1CI1 SC TR SLP112

Get Severe Weather Alerts

Thanks for signing up!

Be on the lookout for a verification email in your inbox.

You'll start receiving the daily forecast at 8 AM.

×

10-Day Weather Forecast

Almanac

Astronomy

Apr. 23, 2017 Rise Set
Actual Time
Civil Twilight
Nautical Twilight
Astronomical Twilight
Moon
Length of Visible Light
Length of Day
Tomorrow will be .
, % of the Moon is Illuminated

Today's Extremes

Country Highs Country Lows

Community

WunderPhotos

WunderBlog® & News

Nearby

Air Quality

  Air Quality AQ Index Pollutant
Not available.

Snow Depth

Station Depth Elevation

Earthquake Activity

City Distance Mag. Time & Date
Minimum magnitude displayed is 2.5.

Coastal Water Temperatures

Place Temperature

Stations

Nearby Weather Stations

Station Location Temp. Windchill Dew Point Humidity Wind Precip. Elev Updated Type
                   

Watches & Warnings

There are currently no watches in effect.